sensor_id;sensor_type;location;lat;lon;timestamp;temperature;humidity
28087;DHT22;15392;48.912;8.380;2023-07-22T00:01:01;23.60;39.00
28087;DHT22;15392;48.912;8.380;2023-07-22T00:03:27;23.60;39.00
28087;DHT22;15392;48.912;8.380;2023-07-22T00:06:08;23.50;39.10
28087;DHT22;15392;48.912;8.380;2023-07-22T00:08:36;23.50;39.80
28087;DHT22;15392;48.912;8.380;2023-07-22T00:11:03;23.40;39.10
28087;DHT22;15392;48.912;8.380;2023-07-22T00:13:30;23.40;39.20
28087;DHT22;15392;48.912;8.380;2023-07-22T00:15:57;23.40;39.30
28087;DHT22;15392;48.912;8.380;2023-07-22T00:18:24;23.30;39.30
28087;DHT22;15392;48.912;8.380;2023-07-22T00:20:53;23.20;39.30
28087;DHT22;15392;48.912;8.380;2023-07-22T00:23:19;23.20;39.40
28087;DHT22;15392;48.912;8.380;2023-07-22T00:25:49;23.10;39.40
28087;DHT22;15392;48.912;8.380;2023-07-22T00:28:15;23.10;39.50
28087;DHT22;15392;48.912;8.380;2023-07-22T00:30:41;23.00;39.40
28087;DHT22;15392;48.912;8.380;2023-07-22T00:33:08;23.00;39.50
28087;DHT22;15392;48.912;8.380;2023-07-22T00:35:34;22.90;39.50
28087;DHT22;15392;48.912;8.380;2023-07-22T00:38:01;22.80;39.60
28087;DHT22;15392;48.912;8.380;2023-07-22T00:40:27;22.80;39.80
28087;DHT22;15392;48.912;8.380;2023-07-22T00:42:55;22.70;39.80
28087;DHT22;15392;48.912;8.380;2023-07-22T00:45:21;22.70;39.80
28087;DHT22;15392;48.912;8.380;2023-07-22T00:47:47;22.60;39.90
28087;DHT22;15392;48.912;8.380;2023-07-22T00:50:14;22.60;39.90
28087;DHT22;15392;48.912;8.380;2023-07-22T00:52:39;22.60;39.90
28087;DHT22;15392;48.912;8.380;2023-07-22T00:55:06;22.50;40.00
28087;DHT22;15392;48.912;8.380;2023-07-22T00:57:32;22.50;40.00
28087;DHT22;15392;48.912;8.380;2023-07-22T00:59:58;22.50;40.00
28087;DHT22;15392;48.912;8.380;2023-07-22T01:02:24;22.40;40.00
28087;DHT22;15392;48.912;8.380;2023-07-22T01:04:50;22.30;40.10
28087;DHT22;15392;48.912;8.380;2023-07-22T01:07:18;22.30;40.20
28087;DHT22;15392;48.912;8.380;2023-07-22T01:09:44;22.30;40.20
28087;DHT22;15392;48.912;8.380;2023-07-22T01:12:10;22.20;40.30
28087;DHT22;15392;48.912;8.380;2023-07-22T01:14:38;22.20;40.40
28087;DHT22;15392;48.912;8.380;2023-07-22T01:17:06;22.20;40.50
28087;DHT22;15392;48.912;8.380;2023-07-22T01:19:34;22.20;40.50
28087;DHT22;15392;48.912;8.380;2023-07-22T01:22:04;22.20;40.40
28087;DHT22;15392;48.912;8.380;2023-07-22T01:24:34;22.10;40.50
28087;DHT22;15392;48.912;8.380;2023-07-22T01:27:00;22.10;40.50
28087;DHT22;15392;48.912;8.380;2023-07-22T01:29:38;22.10;40.50
28087;DHT22;15392;48.912;8.380;2023-07-22T01:32:04;22.10;40.50
28087;DHT22;15392;48.912;8.380;2023-07-22T01:34:30;22.10;41.40
28087;DHT22;15392;48.912;8.380;2023-07-22T01:36:57;22.10;40.70
28087;DHT22;15392;48.912;8.380;2023-07-22T01:39:23;22.10;40.60
28087;DHT22;15392;48.912;8.380;2023-07-22T01:41:48;22.00;40.60
28087;DHT22;15392;48.912;8.380;2023-07-22T01:44:14;22.00;40.50
28087;DHT22;15392;48.912;8.380;2023-07-22T01:46:40;21.90;40.50
28087;DHT22;15392;48.912;8.380;2023-07-22T01:49:11;21.90;40.50
28087;DHT22;15392;48.912;8.380;2023-07-22T01:51:40;21.80;40.90
28087;DHT22;15392;48.912;8.380;2023-07-22T01:54:06;21.80;40.60
28087;DHT22;15392;48.912;8.380;2023-07-22T01:56:34;21.70;40.70
28087;DHT22;15392;48.912;8.380;2023-07-22T01:59:01;21.70;40.70
28087;DHT22;15392;48.912;8.380;2023-07-22T02:01:27;21.70;40.80
28087;DHT22;15392;48.912;8.380;2023-07-22T02:03:54;21.70;40.90
28087;DHT22;15392;48.912;8.380;2023-07-22T02:06:20;21.60;40.90
28087;DHT22;15392;48.912;8.380;2023-07-22T02:08:46;21.60;40.90
28087;DHT22;15392;48.912;8.380;2023-07-22T02:11:12;21.60;41.00
28087;DHT22;15392;48.912;8.380;2023-07-22T02:13:38;21.60;41.00
28087;DHT22;15392;48.912;8.380;2023-07-22T02:16:04;21.60;41.00
28087;DHT22;15392;48.912;8.380;2023-07-22T02:18:30;21.50;41.10
28087;DHT22;15392;48.912;8.380;2023-07-22T02:20:57;21.50;41.00
28087;DHT22;15392;48.912;8.380;2023-07-22T02:23:23;21.40;41.10
28087;DHT22;15392;48.912;8.380;2023-07-22T02:25:53;21.40;41.20
28087;DHT22;15392;48.912;8.380;2023-07-22T02:28:20;21.40;41.50
28087;DHT22;15392;48.912;8.380;2023-07-22T02:30:51;21.40;41.20
28087;DHT22;15392;48.912;8.380;2023-07-22T02:33:18;21.40;41.70
28087;DHT22;15392;48.912;8.380;2023-07-22T02:35:45;21.40;41.30
28087;DHT22;15392;48.912;8.380;2023-07-22T02:38:11;21.30;41.30
28087;DHT22;15392;48.912;8.380;2023-07-22T02:40:37;21.30;41.30
28087;DHT22;15392;48.912;8.380;2023-07-22T02:43:03;21.30;41.30
28087;DHT22;15392;48.912;8.380;2023-07-22T02:45:29;21.30;41.30
28087;DHT22;15392;48.912;8.380;2023-07-22T02:47:55;21.30;41.50
28087;DHT22;15392;48.912;8.380;2023-07-22T02:50:21;21.30;41.50
28087;DHT22;15392;48.912;8.380;2023-07-22T02:52:47;21.20;41.40
28087;DHT22;15392;48.912;8.380;2023-07-22T02:55:15;21.20;41.50
28087;DHT22;15392;48.912;8.380;2023-07-22T02:57:46;21.20;41.60
28087;DHT22;15392;48.912;8.380;2023-07-22T03:00:13;21.20;41.50
28087;DHT22;15392;48.912;8.380;2023-07-22T03:02:42;21.20;41.40
28087;DHT22;15392;48.912;8.380;2023-07-22T03:05:08;21.10;41.30
28087;DHT22;15392;48.912;8.380;2023-07-22T03:07:35;21.10;41.50
28087;DHT22;15392;48.912;8.380;2023-07-22T03:10:05;21.10;41.40
28087;DHT22;15392;48.912;8.380;2023-07-22T03:12:32;21.10;41.50
28087;DHT22;15392;48.912;8.380;2023-07-22T03:14:58;21.00;41.50
28087;DHT22;15392;48.912;8.380;2023-07-22T03:17:24;21.00;41.70
28087;DHT22;15392;48.912;8.380;2023-07-22T03:19:50;21.00;41.70
28087;DHT22;15392;48.912;8.380;2023-07-22T03:22:17;20.90;41.70
28087;DHT22;15392;48.912;8.380;2023-07-22T03:24:44;20.90;41.70
28087;DHT22;15392;48.912;8.380;2023-07-22T03:27:11;20.90;41.70
28087;DHT22;15392;48.912;8.380;2023-07-22T03:29:37;20.90;41.80
28087;DHT22;15392;48.912;8.380;2023-07-22T03:32:04;20.80;41.80
28087;DHT22;15392;48.912;8.380;2023-07-22T03:34:31;20.80;41.90
28087;DHT22;15392;48.912;8.380;2023-07-22T03:36:57;20.80;42.00
28087;DHT22;15392;48.912;8.380;2023-07-22T03:39:24;20.70;42.00
28087;DHT22;15392;48.912;8.380;2023-07-22T03:41:50;20.80;42.10
28087;DHT22;15392;48.912;8.380;2023-07-22T03:44:16;20.70;42.00
28087;DHT22;15392;48.912;8.380;2023-07-22T03:46:42;20.70;42.00
28087;DHT22;15392;48.912;8.380;2023-07-22T03:49:07;20.70;42.00
28087;DHT22;15392;48.912;8.380;2023-07-22T03:51:33;20.70;42.10
28087;DHT22;15392;48.912;8.380;2023-07-22T03:53:59;20.70;42.10
28087;DHT22;15392;48.912;8.380;2023-07-22T03:56:26;20.70;42.10
28087;DHT22;15392;48.912;8.380;2023-07-22T03:58:52;20.70;42.10
28087;DHT22;15392;48.912;8.380;2023-07-22T04:01:18;20.70;42.20
28087;DHT22;15392;48.912;8.380;2023-07-22T04:03:53;20.70;42.20
28087;DHT22;15392;48.912;8.380;2023-07-22T04:06:24;20.60;43.00
28087;DHT22;15392;48.912;8.380;2023-07-22T04:08:51;20.60;42.70
28087;DHT22;15392;48.912;8.380;2023-07-22T04:11:17;20.60;41.90
28087;DHT22;15392;48.912;8.380;2023-07-22T04:13:43;20.60;42.10
28087;DHT22;15392;48.912;8.380;2023-07-22T04:16:09;20.60;42.30
28087;DHT22;15392;48.912;8.380;2023-07-22T04:18:34;20.60;42.30
28087;DHT22;15392;48.912;8.380;2023-07-22T04:21:00;20.60;42.40
28087;DHT22;15392;48.912;8.380;2023-07-22T04:23:26;20.50;42.30
28087;DHT22;15392;48.912;8.380;2023-07-22T04:25:53;20.50;42.40
28087;DHT22;15392;48.912;8.380;2023-07-22T04:28:19;20.50;42.40
28087;DHT22;15392;48.912;8.380;2023-07-22T04:30:55;20.50;42.50
28087;DHT22;15392;48.912;8.380;2023-07-22T04:33:21;20.40;43.40
28087;DHT22;15392;48.912;8.380;2023-07-22T04:35:47;20.40;42.50
28087;DHT22;15392;48.912;8.380;2023-07-22T04:38:13;20.40;42.60
28087;DHT22;15392;48.912;8.380;2023-07-22T04:40:43;20.40;42.70
28087;DHT22;15392;48.912;8.380;2023-07-22T04:43:09;20.40;43.20
28087;DHT22;15392;48.912;8.380;2023-07-22T04:45:34;20.40;43.60
28087;DHT22;15392;48.912;8.380;2023-07-22T04:48:01;20.40;42.30
28087;DHT22;15392;48.912;8.380;2023-07-22T04:50:27;20.30;42.70
28087;DHT22;15392;48.912;8.380;2023-07-22T04:52:54;20.30;42.80
28087;DHT22;15392;48.912;8.380;2023-07-22T04:55:20;20.30;43.00
28087;DHT22;15392;48.912;8.380;2023-07-22T04:57:46;20.30;43.10
28087;DHT22;15392;48.912;8.380;2023-07-22T05:00:12;20.30;43.20
28087;DHT22;15392;48.912;8.380;2023-07-22T05:02:40;20.30;43.40
28087;DHT22;15392;48.912;8.380;2023-07-22T05:05:06;20.30;43.40
28087;DHT22;15392;48.912;8.380;2023-07-22T05:07:33;20.40;43.50
28087;DHT22;15392;48.912;8.380;2023-07-22T05:09:58;20.40;43.30
28087;DHT22;15392;48.912;8.380;2023-07-22T05:12:24;20.40;43.40
28087;DHT22;15392;48.912;8.380;2023-07-22T05:14:50;20.40;43.50
28087;DHT22;15392;48.912;8.380;2023-07-22T05:17:15;20.40;43.30
28087;DHT22;15392;48.912;8.380;2023-07-22T05:19:41;20.50;43.50
28087;DHT22;15392;48.912;8.380;2023-07-22T05:22:07;20.50;43.40
28087;DHT22;15392;48.912;8.380;2023-07-22T05:24:33;20.60;43.20
28087;DHT22;15392;48.912;8.380;2023-07-22T05:26:59;20.60;43.20
28087;DHT22;15392;48.912;8.380;2023-07-22T05:29:25;20.70;43.20
28087;DHT22;15392;48.912;8.380;2023-07-22T05:31:51;20.70;43.20
28087;DHT22;15392;48.912;8.380;2023-07-22T05:34:16;20.70;43.20
28087;DHT22;15392;48.912;8.380;2023-07-22T05:36:42;20.80;43.20
28087;DHT22;15392;48.912;8.380;2023-07-22T05:39:08;20.80;43.10
28087;DHT22;15392;48.912;8.380;2023-07-22T05:41:34;20.90;43.10
28087;DHT22;15392;48.912;8.380;2023-07-22T05:43:59;21.00;43.10
28087;DHT22;15392;48.912;8.380;2023-07-22T05:46:25;21.00;43.00
28087;DHT22;15392;48.912;8.380;2023-07-22T05:48:51;21.10;43.00
28087;DHT22;15392;48.912;8.380;2023-07-22T05:51:20;21.10;43.00
28087;DHT22;15392;48.912;8.380;2023-07-22T05:53:46;21.20;43.00
28087;DHT22;15392;48.912;8.380;2023-07-22T05:56:12;21.30;43.00
28087;DHT22;15392;48.912;8.380;2023-07-22T05:58:37;21.30;43.00
28087;DHT22;15392;48.912;8.380;2023-07-22T06:01:03;21.40;43.00
28087;DHT22;15392;48.912;8.380;2023-07-22T06:03:29;21.50;43.10
28087;DHT22;15392;48.912;8.380;2023-07-22T06:05:55;21.50;43.00
28087;DHT22;15392;48.912;8.380;2023-07-22T06:08:20;21.60;43.10
28087;DHT22;15392;48.912;8.380;2023-07-22T06:10:46;21.70;43.20
28087;DHT22;15392;48.912;8.380;2023-07-22T06:13:12;21.80;43.00
28087;DHT22;15392;48.912;8.380;2023-07-22T06:15:37;21.80;43.00
28087;DHT22;15392;48.912;8.380;2023-07-22T06:18:03;21.90;43.00
28087;DHT22;15392;48.912;8.380;2023-07-22T06:20:33;22.00;43.00
28087;DHT22;15392;48.912;8.380;2023-07-22T06:22:59;22.00;43.00
28087;DHT22;15392;48.912;8.380;2023-07-22T06:25:24;22.00;42.90
28087;DHT22;15392;48.912;8.380;2023-07-22T06:27:50;22.10;42.90
28087;DHT22;15392;48.912;8.380;2023-07-22T06:30:16;22.10;42.90
28087;DHT22;15392;48.912;8.380;2023-07-22T06:32:41;22.20;43.00
28087;DHT22;15392;48.912;8.380;2023-07-22T06:35:07;22.20;43.00
28087;DHT22;15392;48.912;8.380;2023-07-22T06:37:33;22.20;42.90
28087;DHT22;15392;48.912;8.380;2023-07-22T06:39:59;22.30;42.90
28087;DHT22;15392;48.912;8.380;2023-07-22T06:42:25;22.30;42.90
28087;DHT22;15392;48.912;8.380;2023-07-22T06:44:52;22.40;43.00
28087;DHT22;15392;48.912;8.380;2023-07-22T06:47:18;22.40;42.80
28087;DHT22;15392;48.912;8.380;2023-07-22T06:49:44;22.50;42.80
28087;DHT22;15392;48.912;8.380;2023-07-22T06:52:10;22.50;42.80
28087;DHT22;15392;48.912;8.380;2023-07-22T06:54:36;22.50;42.70
28087;DHT22;15392;48.912;8.380;2023-07-22T06:57:02;22.60;42.70
28087;DHT22;15392;48.912;8.380;2023-07-22T06:59:27;22.60;42.70
28087;DHT22;15392;48.912;8.380;2023-07-22T07:01:54;22.70;42.70
28087;DHT22;15392;48.912;8.380;2023-07-22T07:04:20;22.70;42.80
28087;DHT22;15392;48.912;8.380;2023-07-22T07:06:46;22.80;42.70
28087;DHT22;15392;48.912;8.380;2023-07-22T07:09:12;22.90;42.70
28087;DHT22;15392;48.912;8.380;2023-07-22T07:11:37;22.90;42.80
28087;DHT22;15392;48.912;8.380;2023-07-22T07:14:03;23.00;42.80
28087;DHT22;15392;48.912;8.380;2023-07-22T07:16:30;23.10;42.80
28087;DHT22;15392;48.912;8.380;2023-07-22T07:18:58;23.10;42.80
28087;DHT22;15392;48.912;8.380;2023-07-22T07:21:28;23.20;42.60
28087;DHT22;15392;48.912;8.380;2023-07-22T07:23:57;23.30;42.50
28087;DHT22;15392;48.912;8.380;2023-07-22T07:26:26;23.40;42.90
28087;DHT22;15392;48.912;8.380;2023-07-22T07:29:07;23.60;42.50
28087;DHT22;15392;48.912;8.380;2023-07-22T07:31:33;23.70;43.40
28087;DHT22;15392;48.912;8.380;2023-07-22T07:33:59;23.90;42.40
28087;DHT22;15392;48.912;8.380;2023-07-22T07:36:25;24.10;43.10
28087;DHT22;15392;48.912;8.380;2023-07-22T07:38:51;24.30;42.40
28087;DHT22;15392;48.912;8.380;2023-07-22T07:41:16;24.50;42.20
28087;DHT22;15392;48.912;8.380;2023-07-22T07:43:43;24.80;42.10
28087;DHT22;15392;48.912;8.380;2023-07-22T07:46:25;25.00;41.80
28087;DHT22;15392;48.912;8.380;2023-07-22T07:48:57;25.10;41.60
28087;DHT22;15392;48.912;8.380;2023-07-22T07:51:25;25.30;41.20
28087;DHT22;15392;48.912;8.380;2023-07-22T07:53:52;25.50;41.00
28087;DHT22;15392;48.912;8.380;2023-07-22T07:56:19;25.60;40.70
28087;DHT22;15392;48.912;8.380;2023-07-22T07:58:48;25.70;40.60
28087;DHT22;15392;48.912;8.380;2023-07-22T08:01:15;25.70;40.40
28087;DHT22;15392;48.912;8.380;2023-07-22T08:03:42;25.80;40.30
28087;DHT22;15392;48.912;8.380;2023-07-22T08:06:09;25.80;40.30
28087;DHT22;15392;48.912;8.380;2023-07-22T08:08:36;25.90;40.40
28087;DHT22;15392;48.912;8.380;2023-07-22T08:11:07;26.00;40.40
28087;DHT22;15392;48.912;8.380;2023-07-22T08:13:34;26.10;40.30
28087;DHT22;15392;48.912;8.380;2023-07-22T08:16:09;26.20;40.10
28087;DHT22;15392;48.912;8.380;2023-07-22T08:18:41;26.30;40.20
28087;DHT22;15392;48.912;8.380;2023-07-22T08:21:08;26.60;40.30
28087;DHT22;15392;48.912;8.380;2023-07-22T08:23:38;26.80;40.60
28087;DHT22;15392;48.912;8.380;2023-07-22T08:26:05;27.10;40.60
28087;DHT22;15392;48.912;8.380;2023-07-22T08:28:31;27.40;40.60
28087;DHT22;15392;48.912;8.380;2023-07-22T08:30:57;27.70;40.40
28087;DHT22;15392;48.912;8.380;2023-07-22T08:33:24;28.00;40.50
28087;DHT22;15392;48.912;8.380;2023-07-22T08:35:53;28.30;39.50
28087;DHT22;15392;48.912;8.380;2023-07-22T08:38:19;28.50;39.00
28087;DHT22;15392;48.912;8.380;2023-07-22T08:40:49;28.70;39.10
28087;DHT22;15392;48.912;8.380;2023-07-22T08:43:19;28.90;39.00
28087;DHT22;15392;48.912;8.380;2023-07-22T08:45:47;29.10;38.90
28087;DHT22;15392;48.912;8.380;2023-07-22T08:48:16;29.30;39.00
28087;DHT22;15392;48.912;8.380;2023-07-22T08:50:53;29.60;38.90
28087;DHT22;15392;48.912;8.380;2023-07-22T08:53:20;29.80;38.50
28087;DHT22;15392;48.912;8.380;2023-07-22T08:55:47;30.10;38.50
28087;DHT22;15392;48.912;8.380;2023-07-22T08:58:13;30.30;38.10
28087;DHT22;15392;48.912;8.380;2023-07-22T09:00:40;30.60;37.80
28087;DHT22;15392;48.912;8.380;2023-07-22T09:03:06;30.70;37.50
28087;DHT22;15392;48.912;8.380;2023-07-22T09:05:33;30.90;36.90
28087;DHT22;15392;48.912;8.380;2023-07-22T09:08:05;30.90;36.40
28087;DHT22;15392;48.912;8.380;2023-07-22T09:10:32;31.00;36.30
28087;DHT22;15392;48.912;8.380;2023-07-22T09:12:59;31.00;36.80
28087;DHT22;15392;48.912;8.380;2023-07-22T09:15:26;31.00;36.30
28087;DHT22;15392;48.912;8.380;2023-07-22T09:17:53;31.00;36.10
28087;DHT22;15392;48.912;8.380;2023-07-22T09:20:20;31.00;36.00
28087;DHT22;15392;48.912;8.380;2023-07-22T09:22:47;30.90;35.80
28087;DHT22;15392;48.912;8.380;2023-07-22T09:27:44;30.80;36.70
28087;DHT22;15392;48.912;8.380;2023-07-22T09:30:26;30.80;36.50
28087;DHT22;15392;48.912;8.380;2023-07-22T09:32:57;30.80;36.20
28087;DHT22;15392;48.912;8.380;2023-07-22T09:35:44;30.80;36.20
28087;DHT22;15392;48.912;8.380;2023-07-22T09:38:11;30.80;36.30
28087;DHT22;15392;48.912;8.380;2023-07-22T09:40:40;30.90;37.00
28087;DHT22;15392;48.912;8.380;2023-07-22T09:43:10;30.90;36.70
28087;DHT22;15392;48.912;8.380;2023-07-22T09:45:37;31.10;36.90
28087;DHT22;15392;48.912;8.380;2023-07-22T09:48:03;31.20;37.20
28087;DHT22;15392;48.912;8.380;2023-07-22T09:50:30;31.40;37.00
28087;DHT22;15392;48.912;8.380;2023-07-22T09:52:57;31.50;36.70
28087;DHT22;15392;48.912;8.380;2023-07-22T09:55:27;31.60;36.20
28087;DHT22;15392;48.912;8.380;2023-07-22T09:57:56;31.60;36.00
28087;DHT22;15392;48.912;8.380;2023-07-22T10:00:24;31.60;35.40
28087;DHT22;15392;48.912;8.380;2023-07-22T10:02:56;31.50;35.30
28087;DHT22;15392;48.912;8.380;2023-07-22T10:05:24;31.40;35.00
28087;DHT22;15392;48.912;8.380;2023-07-22T10:07:53;31.30;35.20
28087;DHT22;15392;48.912;8.380;2023-07-22T10:10:42;31.20;35.40
28087;DHT22;15392;48.912;8.380;2023-07-22T10:13:10;31.10;35.50
28087;DHT22;15392;48.912;8.380;2023-07-22T10:15:36;31.00;35.50
28087;DHT22;15392;48.912;8.380;2023-07-22T10:18:04;30.90;35.80
28087;DHT22;15392;48.912;8.380;2023-07-22T10:20:33;30.80;35.40
28087;DHT22;15392;48.912;8.380;2023-07-22T10:23:02;30.80;35.40
28087;DHT22;15392;48.912;8.380;2023-07-22T10:25:30;30.60;35.60
28087;DHT22;15392;48.912;8.380;2023-07-22T10:27:56;30.60;35.90
28087;DHT22;15392;48.912;8.380;2023-07-22T10:30:22;30.50;35.50
28087;DHT22;15392;48.912;8.380;2023-07-22T10:32:52;30.40;35.70
28087;DHT22;15392;48.912;8.380;2023-07-22T10:38:06;30.30;35.30
28087;DHT22;15392;48.912;8.380;2023-07-22T10:43:15;30.10;35.10
28087;DHT22;15392;48.912;8.380;2023-07-22T10:45:48;30.00;35.60
28087;DHT22;15392;48.912;8.380;2023-07-22T10:48:17;30.00;35.80
28087;DHT22;15392;48.912;8.380;2023-07-22T10:50:51;29.90;35.70
28087;DHT22;15392;48.912;8.380;2023-07-22T10:56:04;29.80;35.30
28087;DHT22;15392;48.912;8.380;2023-07-22T10:58:33;29.80;35.20
28087;DHT22;15392;48.912;8.380;2023-07-22T11:14:47;29.60;35.40
28087;DHT22;15392;48.912;8.380;2023-07-22T11:17:30;29.60;35.10
28087;DHT22;15392;48.912;8.380;2023-07-22T11:19:58;29.60;35.60
28087;DHT22;15392;48.912;8.380;2023-07-22T11:22:25;29.60;36.10
28087;DHT22;15392;48.912;8.380;2023-07-22T11:24:52;29.60;36.10
28087;DHT22;15392;48.912;8.380;2023-07-22T11:27:18;29.70;36.20
28087;DHT22;15392;48.912;8.380;2023-07-22T11:29:44;29.70;36.30
28087;DHT22;15392;48.912;8.380;2023-07-22T11:32:16;29.70;35.80
28087;DHT22;15392;48.912;8.380;2023-07-22T11:34:43;29.70;35.60
28087;DHT22;15392;48.912;8.380;2023-07-22T11:37:13;29.80;35.80
28087;DHT22;15392;48.912;8.380;2023-07-22T11:39:40;29.80;35.50
28087;DHT22;15392;48.912;8.380;2023-07-22T11:42:08;29.80;35.80
28087;DHT22;15392;48.912;8.380;2023-07-22T11:44:33;29.80;35.80
28087;DHT22;15392;48.912;8.380;2023-07-22T11:47:06;29.90;35.70
28087;DHT22;15392;48.912;8.380;2023-07-22T11:49:41;29.90;35.10
28087;DHT22;15392;48.912;8.380;2023-07-22T11:52:09;29.90;35.30
28087;DHT22;15392;48.912;8.380;2023-07-22T11:54:41;29.90;35.40
28087;DHT22;15392;48.912;8.380;2023-07-22T11:57:20;30.00;35.00
28087;DHT22;15392;48.912;8.380;2023-07-22T11:59:51;30.00;35.00
28087;DHT22;15392;48.912;8.380;2023-07-22T12:02:23;30.10;35.50
28087;DHT22;15392;48.912;8.380;2023-07-22T12:05:02;30.20;35.30
28087;DHT22;15392;48.912;8.380;2023-07-22T12:07:37;30.20;35.30
28087;DHT22;15392;48.912;8.380;2023-07-22T12:10:07;30.30;34.60
28087;DHT22;15392;48.912;8.380;2023-07-22T12:12:43;30.40;35.00
28087;DHT22;15392;48.912;8.380;2023-07-22T12:15:22;30.50;34.60
28087;DHT22;15392;48.912;8.380;2023-07-22T12:18:22;30.60;34.20
28087;DHT22;15392;48.912;8.380;2023-07-22T12:20:40;30.70;35.00
28087;DHT22;15392;48.912;8.380;2023-07-22T12:23:06;30.80;35.10
28087;DHT22;15392;48.912;8.380;2023-07-22T12:25:32;30.90;34.50
28087;DHT22;15392;48.912;8.380;2023-07-22T12:27:59;31.00;35.00
28087;DHT22;15392;48.912;8.380;2023-07-22T12:30:25;31.10;34.10
28087;DHT22;15392;48.912;8.380;2023-07-22T12:32:53;31.20;34.70
28087;DHT22;15392;48.912;8.380;2023-07-22T12:35:19;31.20;35.00
28087;DHT22;15392;48.912;8.380;2023-07-22T12:37:45;31.30;35.10
28087;DHT22;15392;48.912;8.380;2023-07-22T12:40:11;31.50;34.70
28087;DHT22;15392;48.912;8.380;2023-07-22T12:42:37;31.60;34.80
28087;DHT22;15392;48.912;8.380;2023-07-22T12:45:04;31.70;34.90
28087;DHT22;15392;48.912;8.380;2023-07-22T12:47:30;31.80;35.00
28087;DHT22;15392;48.912;8.380;2023-07-22T12:49:56;31.90;34.60
28087;DHT22;15392;48.912;8.380;2023-07-22T12:52:22;32.00;34.30
28087;DHT22;15392;48.912;8.380;2023-07-22T12:54:48;32.20;34.00
28087;DHT22;15392;48.912;8.380;2023-07-22T12:57:13;32.30;33.60
28087;DHT22;15392;48.912;8.380;2023-07-22T12:59:39;32.40;33.50
28087;DHT22;15392;48.912;8.380;2023-07-22T13:02:06;32.50;33.20
28087;DHT22;15392;48.912;8.380;2023-07-22T13:04:32;32.50;33.70
28087;DHT22;15392;48.912;8.380;2023-07-22T13:06:57;32.50;33.50
28087;DHT22;15392;48.912;8.380;2023-07-22T13:09:23;32.60;33.10
28087;DHT22;15392;48.912;8.380;2023-07-22T13:11:49;32.60;33.50
28087;DHT22;15392;48.912;8.380;2023-07-22T13:14:15;32.60;33.30
28087;DHT22;15392;48.912;8.380;2023-07-22T13:16:40;32.60;33.10
28087;DHT22;15392;48.912;8.380;2023-07-22T13:19:06;32.70;32.40
28087;DHT22;15392;48.912;8.380;2023-07-22T13:21:32;32.70;32.90
28087;DHT22;15392;48.912;8.380;2023-07-22T13:23:57;32.80;33.00
28087;DHT22;15392;48.912;8.380;2023-07-22T13:26:23;32.80;32.90
28087;DHT22;15392;48.912;8.380;2023-07-22T13:28:49;32.80;33.20
28087;DHT22;15392;48.912;8.380;2023-07-22T13:31:15;32.80;32.90
28087;DHT22;15392;48.912;8.380;2023-07-22T13:33:41;32.80;32.50
28087;DHT22;15392;48.912;8.380;2023-07-22T13:36:07;32.90;32.70
28087;DHT22;15392;48.912;8.380;2023-07-22T13:38:34;32.90;32.30
28087;DHT22;15392;48.912;8.380;2023-07-22T13:41:00;32.90;32.50
28087;DHT22;15392;48.912;8.380;2023-07-22T13:43:28;32.90;32.10
28087;DHT22;15392;48.912;8.380;2023-07-22T13:45:54;32.90;32.10
28087;DHT22;15392;48.912;8.380;2023-07-22T13:48:20;32.90;31.90
28087;DHT22;15392;48.912;8.380;2023-07-22T13:50:46;32.90;32.20
28087;DHT22;15392;48.912;8.380;2023-07-22T13:53:12;32.90;32.30
28087;DHT22;15392;48.912;8.380;2023-07-22T13:55:37;32.80;32.20
28087;DHT22;15392;48.912;8.380;2023-07-22T13:58:04;32.80;31.80
28087;DHT22;15392;48.912;8.380;2023-07-22T14:00:30;32.80;31.50
28087;DHT22;15392;48.912;8.380;2023-07-22T14:02:56;32.80;31.90
28087;DHT22;15392;48.912;8.380;2023-07-22T14:05:22;32.80;31.90
28087;DHT22;15392;48.912;8.380;2023-07-22T14:07:48;32.70;32.20
28087;DHT22;15392;48.912;8.380;2023-07-22T14:10:14;32.70;32.10
28087;DHT22;15392;48.912;8.380;2023-07-22T14:12:40;32.70;32.30
28087;DHT22;15392;48.912;8.380;2023-07-22T14:15:06;32.70;32.00
28087;DHT22;15392;48.912;8.380;2023-07-22T14:17:32;32.60;32.30
28087;DHT22;15392;48.912;8.380;2023-07-22T14:19:58;32.60;32.20
28087;DHT22;15392;48.912;8.380;2023-07-22T14:22:25;32.60;31.30
28087;DHT22;15392;48.912;8.380;2023-07-22T14:24:51;32.60;31.70
28087;DHT22;15392;48.912;8.380;2023-07-22T14:27:16;32.60;31.50
28087;DHT22;15392;48.912;8.380;2023-07-22T14:29:43;32.50;31.80
28087;DHT22;15392;48.912;8.380;2023-07-22T14:32:09;32.50;32.10
28087;DHT22;15392;48.912;8.380;2023-07-22T14:34:35;32.50;31.60
28087;DHT22;15392;48.912;8.380;2023-07-22T14:37:01;32.40;31.70
28087;DHT22;15392;48.912;8.380;2023-07-22T14:39:26;32.30;31.70
28087;DHT22;15392;48.912;8.380;2023-07-22T14:41:52;32.30;31.70
28087;DHT22;15392;48.912;8.380;2023-07-22T14:44:19;32.30;32.10
28087;DHT22;15392;48.912;8.380;2023-07-22T14:46:45;32.20;31.90
28087;DHT22;15392;48.912;8.380;2023-07-22T14:49:12;32.20;31.30
28087;DHT22;15392;48.912;8.380;2023-07-22T14:51:37;32.20;31.70
28087;DHT22;15392;48.912;8.380;2023-07-22T14:54:03;32.20;31.90
28087;DHT22;15392;48.912;8.380;2023-07-22T14:56:30;32.10;32.00
28087;DHT22;15392;48.912;8.380;2023-07-22T14:58:58;32.10;32.20
28087;DHT22;15392;48.912;8.380;2023-07-22T15:01:24;32.10;31.50
28087;DHT22;15392;48.912;8.380;2023-07-22T15:03:50;32.00;31.60
28087;DHT22;15392;48.912;8.380;2023-07-22T15:06:16;32.00;31.20
28087;DHT22;15392;48.912;8.380;2023-07-22T15:08:42;32.00;31.80
28087;DHT22;15392;48.912;8.380;2023-07-22T15:11:08;32.00;31.80
28087;DHT22;15392;48.912;8.380;2023-07-22T15:13:33;31.90;31.80
28087;DHT22;15392;48.912;8.380;2023-07-22T15:15:59;31.90;31.70
28087;DHT22;15392;48.912;8.380;2023-07-22T15:18:25;31.90;32.00
28087;DHT22;15392;48.912;8.380;2023-07-22T15:20:51;31.90;31.60
28087;DHT22;15392;48.912;8.380;2023-07-22T15:23:18;31.80;31.90
28087;DHT22;15392;48.912;8.380;2023-07-22T15:25:44;31.90;32.00
28087;DHT22;15392;48.912;8.380;2023-07-22T15:28:10;31.90;32.10
28087;DHT22;15392;48.912;8.380;2023-07-22T15:30:35;31.90;31.70
28087;DHT22;15392;48.912;8.380;2023-07-22T15:33:01;31.90;31.60
28087;DHT22;15392;48.912;8.380;2023-07-22T15:35:27;31.90;31.70
28087;DHT22;15392;48.912;8.380;2023-07-22T15:37:53;31.90;31.40
28087;DHT22;15392;48.912;8.380;2023-07-22T15:40:20;31.90;31.60
28087;DHT22;15392;48.912;8.380;2023-07-22T15:42:46;31.90;31.40
28087;DHT22;15392;48.912;8.380;2023-07-22T15:45:13;31.90;31.10
28087;DHT22;15392;48.912;8.380;2023-07-22T15:47:38;31.90;31.30
28087;DHT22;15392;48.912;8.380;2023-07-22T15:50:04;31.90;31.50
28087;DHT22;15392;48.912;8.380;2023-07-22T15:52:30;31.90;31.40
28087;DHT22;15392;48.912;8.380;2023-07-22T15:54:56;31.90;31.50